sensor_id;sensor_type;location;lat;lon;timestamp;P1;durP1;ratioP1;P2;durP2;ratioP2
8177;SDS011;4130;48.740;9.132;2022-08-25T00:01:26;2.67;;;2.47;;
8177;SDS011;4130;48.740;9.132;2022-08-25T00:03:55;2.60;;;2.40;;
8177;SDS011;4130;48.740;9.132;2022-08-25T00:06:22;3.05;;;2.78;;
8177;SDS011;4130;48.740;9.132;2022-08-25T00:08:50;3.42;;;2.72;;
8177;SDS011;4130;48.740;9.132;2022-08-25T00:11:19;3.28;;;2.78;;
8177;SDS011;4130;48.740;9.132;2022-08-25T00:13:51;2.88;;;2.38;;
8177;SDS011;4130;48.740;9.132;2022-08-25T00:16:19;2.78;;;2.58;;
8177;SDS011;4130;48.740;9.132;2022-08-25T00:18:53;3.85;;;2.65;;
8177;SDS011;4130;48.740;9.132;2022-08-25T00:21:22;2.83;;;2.60;;
8177;SDS011;4130;48.740;9.132;2022-08-25T00:23:50;4.53;;;2.97;;
8177;SDS011;4130;48.740;9.132;2022-08-25T00:26:17;3.42;;;2.83;;
8177;SDS011;4130;48.740;9.132;2022-08-25T00:28:45;2.72;;;2.45;;
8177;SDS011;4130;48.740;9.132;2022-08-25T00:31:14;2.70;;;2.50;;
8177;SDS011;4130;48.740;9.132;2022-08-25T00:33:43;3.08;;;2.78;;
8177;SDS011;4130;48.740;9.132;2022-08-25T00:36:10;3.25;;;2.90;;
8177;SDS011;4130;48.740;9.132;2022-08-25T00:38:37;3.00;;;2.75;;
8177;SDS011;4130;48.740;9.132;2022-08-25T00:41:04;3.15;;;2.85;;
8177;SDS011;4130;48.740;9.132;2022-08-25T00:43:33;3.03;;;2.75;;
8177;SDS011;4130;48.740;9.132;2022-08-25T00:46:02;3.60;;;3.05;;
8177;SDS011;4130;48.740;9.132;2022-08-25T00:48:30;3.00;;;2.67;;
8177;SDS011;4130;48.740;9.132;2022-08-25T00:50:58;4.63;;;2.90;;
8177;SDS011;4130;48.740;9.132;2022-08-25T00:53:27;2.90;;;2.70;;
8177;SDS011;4130;48.740;9.132;2022-08-25T00:55:54;3.67;;;3.00;;
8177;SDS011;4130;48.740;9.132;2022-08-25T00:58:23;2.70;;;2.50;;
8177;SDS011;4130;48.740;9.132;2022-08-25T01:00:53;2.65;;;2.45;;
8177;SDS011;4130;48.740;9.132;2022-08-25T01:03:22;2.80;;;2.60;;
8177;SDS011;4130;48.740;9.132;2022-08-25T01:05:51;3.58;;;2.58;;
8177;SDS011;4130;48.740;9.132;2022-08-25T01:08:19;3.00;;;2.80;;
8177;SDS011;4130;48.740;9.132;2022-08-25T01:10:51;3.53;;;2.50;;
8177;SDS011;4130;48.740;9.132;2022-08-25T01:13:20;2.90;;;2.33;;
8177;SDS011;4130;48.740;9.132;2022-08-25T01:15:52;3.47;;;2.80;;
8177;SDS011;4130;48.740;9.132;2022-08-25T01:18:21;2.92;;;2.50;;
8177;SDS011;4130;48.740;9.132;2022-08-25T01:20:53;3.15;;;2.80;;
8177;SDS011;4130;48.740;9.132;2022-08-25T01:23:21;3.60;;;2.33;;
8177;SDS011;4130;48.740;9.132;2022-08-25T01:25:50;3.10;;;2.70;;
8177;SDS011;4130;48.740;9.132;2022-08-25T01:28:24;2.92;;;2.72;;
8177;SDS011;4130;48.740;9.132;2022-08-25T01:30:51;3.50;;;2.72;;
8177;SDS011;4130;48.740;9.132;2022-08-25T01:33:18;2.90;;;2.70;;
8177;SDS011;4130;48.740;9.132;2022-08-25T01:35:46;3.10;;;2.80;;
8177;SDS011;4130;48.740;9.132;2022-08-25T01:38:15;3.05;;;2.75;;
8177;SDS011;4130;48.740;9.132;2022-08-25T01:40:42;2.80;;;2.60;;
8177;SDS011;4130;48.740;9.132;2022-08-25T01:43:11;3.20;;;2.90;;
8177;SDS011;4130;48.740;9.132;2022-08-25T01:45:46;2.70;;;2.47;;
8177;SDS011;4130;48.740;9.132;2022-08-25T01:48:14;3.10;;;2.90;;
8177;SDS011;4130;48.740;9.132;2022-08-25T01:50:42;2.88;;;2.67;;
8177;SDS011;4130;48.740;9.132;2022-08-25T01:53:11;5.13;;;2.75;;
8177;SDS011;4130;48.740;9.132;2022-08-25T01:55:44;3.30;;;3.00;;
8177;SDS011;4130;48.740;9.132;2022-08-25T01:58:17;2.88;;;2.60;;
8177;SDS011;4130;48.740;9.132;2022-08-25T02:00:45;2.80;;;2.60;;
8177;SDS011;4130;48.740;9.132;2022-08-25T02:03:12;3.50;;;3.05;;
8177;SDS011;4130;48.740;9.132;2022-08-25T02:05:40;3.13;;;2.83;;
8177;SDS011;4130;48.740;9.132;2022-08-25T02:08:07;2.90;;;2.70;;
8177;SDS011;4130;48.740;9.132;2022-08-25T02:10:35;3.20;;;2.90;;
8177;SDS011;4130;48.740;9.132;2022-08-25T02:13:05;4.43;;;3.00;;
8177;SDS011;4130;48.740;9.132;2022-08-25T02:15:32;5.70;;;3.53;;
8177;SDS011;4130;48.740;9.132;2022-08-25T02:18:01;3.08;;;2.83;;
8177;SDS011;4130;48.740;9.132;2022-08-25T02:20:28;3.22;;;2.60;;
8177;SDS011;4130;48.740;9.132;2022-08-25T02:22:55;4.05;;;3.00;;
8177;SDS011;4130;48.740;9.132;2022-08-25T02:25:22;3.53;;;3.00;;
8177;SDS011;4130;48.740;9.132;2022-08-25T02:27:48;2.90;;;2.70;;
8177;SDS011;4130;48.740;9.132;2022-08-25T02:30:17;3.88;;;3.20;;
8177;SDS011;4130;48.740;9.132;2022-08-25T02:32:44;3.65;;;2.95;;
8177;SDS011;4130;48.740;9.132;2022-08-25T02:35:11;3.17;;;2.87;;
8177;SDS011;4130;48.740;9.132;2022-08-25T02:37:38;3.73;;;3.00;;
8177;SDS011;4130;48.740;9.132;2022-08-25T02:40:06;3.10;;;2.80;;
8177;SDS011;4130;48.740;9.132;2022-08-25T02:42:34;2.88;;;2.67;;
8177;SDS011;4130;48.740;9.132;2022-08-25T02:45:01;2.75;;;2.53;;
8177;SDS011;4130;48.740;9.132;2022-08-25T02:47:32;3.57;;;2.90;;
8177;SDS011;4130;48.740;9.132;2022-08-25T02:49:59;3.30;;;3.00;;
8177;SDS011;4130;48.740;9.132;2022-08-25T02:52:26;3.93;;;3.00;;
8177;SDS011;4130;48.740;9.132;2022-08-25T02:54:53;3.38;;;3.08;;
8177;SDS011;4130;48.740;9.132;2022-08-25T02:57:20;3.00;;;2.80;;
8177;SDS011;4130;48.740;9.132;2022-08-25T02:59:47;3.60;;;2.88;;
8177;SDS011;4130;48.740;9.132;2022-08-25T03:02:15;3.78;;;2.92;;
8177;SDS011;4130;48.740;9.132;2022-08-25T03:04:44;3.20;;;3.00;;
8177;SDS011;4130;48.740;9.132;2022-08-25T03:07:11;3.73;;;3.10;;
8177;SDS011;4130;48.740;9.132;2022-08-25T03:09:38;3.20;;;2.90;;
8177;SDS011;4130;48.740;9.132;2022-08-25T03:12:05;3.27;;;3.00;;
8177;SDS011;4130;48.740;9.132;2022-08-25T03:14:33;2.90;;;2.70;;
8177;SDS011;4130;48.740;9.132;2022-08-25T03:17:00;3.07;;;2.77;;
8177;SDS011;4130;48.740;9.132;2022-08-25T03:19:27;3.00;;;2.78;;
8177;SDS011;4130;48.740;9.132;2022-08-25T03:21:56;4.70;;;3.40;;
8177;SDS011;4130;48.740;9.132;2022-08-25T03:24:23;3.60;;;3.30;;
8177;SDS011;4130;48.740;9.132;2022-08-25T03:26:51;4.30;;;3.05;;
8177;SDS011;4130;48.740;9.132;2022-08-25T03:29:17;3.63;;;3.07;;
8177;SDS011;4130;48.740;9.132;2022-08-25T03:31:45;3.87;;;3.07;;
8177;SDS011;4130;48.740;9.132;2022-08-25T03:34:12;3.23;;;2.93;;
8177;SDS011;4130;48.740;9.132;2022-08-25T03:36:40;4.17;;;3.00;;
8177;SDS011;4130;48.740;9.132;2022-08-25T03:39:09;3.73;;;3.17;;
8177;SDS011;4130;48.740;9.132;2022-08-25T03:41:36;3.47;;;3.17;;
8177;SDS011;4130;48.740;9.132;2022-08-25T03:44:04;3.60;;;3.07;;
8177;SDS011;4130;48.740;9.132;2022-08-25T03:46:34;3.27;;;3.00;;
8177;SDS011;4130;48.740;9.132;2022-08-25T03:49:05;3.40;;;3.10;;
8177;SDS011;4130;48.740;9.132;2022-08-25T03:51:35;3.40;;;3.10;;
8177;SDS011;4130;48.740;9.132;2022-08-25T03:54:07;3.30;;;3.00;;
8177;SDS011;4130;48.740;9.132;2022-08-25T03:56:36;3.97;;;3.07;;
8177;SDS011;4130;48.740;9.132;2022-08-25T03:59:03;4.90;;;3.07;;
8177;SDS011;4130;48.740;9.132;2022-08-25T04:01:33;3.50;;;3.20;;
8177;SDS011;4130;48.740;9.132;2022-08-25T04:04:00;4.13;;;3.10;;
8177;SDS011;4130;48.740;9.132;2022-08-25T04:06:28;3.40;;;3.10;;
8177;SDS011;4130;48.740;9.132;2022-08-25T04:08:55;3.63;;;3.33;;
8177;SDS011;4130;48.740;9.132;2022-08-25T04:11:24;3.80;;;3.40;;
8177;SDS011;4130;48.740;9.132;2022-08-25T04:13:54;4.03;;;3.50;;
8177;SDS011;4130;48.740;9.132;2022-08-25T04:16:23;4.00;;;3.60;;
8177;SDS011;4130;48.740;9.132;2022-08-25T04:18:54;3.80;;;3.30;;
8177;SDS011;4130;48.740;9.132;2022-08-25T04:21:21;4.23;;;3.63;;
8177;SDS011;4130;48.740;9.132;2022-08-25T04:23:49;4.37;;;3.97;;
8177;SDS011;4130;48.740;9.132;2022-08-25T04:26:18;3.90;;;3.60;;
8177;SDS011;4130;48.740;9.132;2022-08-25T04:28:48;4.23;;;3.47;;
8177;SDS011;4130;48.740;9.132;2022-08-25T04:31:16;3.90;;;3.50;;
8177;SDS011;4130;48.740;9.132;2022-08-25T04:33:44;3.80;;;3.40;;
8177;SDS011;4130;48.740;9.132;2022-08-25T04:36:12;4.77;;;3.80;;
8177;SDS011;4130;48.740;9.132;2022-08-25T04:38:40;3.67;;;3.37;;
8177;SDS011;4130;48.740;9.132;2022-08-25T04:41:09;5.03;;;3.43;;
8177;SDS011;4130;48.740;9.132;2022-08-25T04:43:37;3.80;;;3.20;;
8177;SDS011;4130;48.740;9.132;2022-08-25T04:46:08;5.87;;;3.43;;
8177;SDS011;4130;48.740;9.132;2022-08-25T04:48:36;4.10;;;3.43;;
8177;SDS011;4130;48.740;9.132;2022-08-25T04:51:04;3.70;;;3.37;;
8177;SDS011;4130;48.740;9.132;2022-08-25T04:53:32;6.67;;;3.67;;
8177;SDS011;4130;48.740;9.132;2022-08-25T04:55:59;4.57;;;3.83;;
8177;SDS011;4130;48.740;9.132;2022-08-25T04:58:26;5.15;;;3.78;;
8177;SDS011;4130;48.740;9.132;2022-08-25T05:01:00;4.57;;;3.60;;
8177;SDS011;4130;48.740;9.132;2022-08-25T05:03:29;4.50;;;3.70;;
8177;SDS011;4130;48.740;9.132;2022-08-25T05:05:56;4.57;;;3.83;;
8177;SDS011;4130;48.740;9.132;2022-08-25T05:08:23;5.80;;;4.17;;
8177;SDS011;4130;48.740;9.132;2022-08-25T05:10:50;4.03;;;3.63;;
8177;SDS011;4130;48.740;9.132;2022-08-25T05:13:20;4.03;;;3.63;;
8177;SDS011;4130;48.740;9.132;2022-08-25T05:15:51;4.33;;;3.60;;
8177;SDS011;4130;48.740;9.132;2022-08-25T05:18:19;4.07;;;3.60;;
8177;SDS011;4130;48.740;9.132;2022-08-25T05:20:49;4.57;;;3.70;;
8177;SDS011;4130;48.740;9.132;2022-08-25T05:23:19;5.00;;;3.57;;
8177;SDS011;4130;48.740;9.132;2022-08-25T05:25:47;6.13;;;3.50;;
8177;SDS011;4130;48.740;9.132;2022-08-25T05:28:14;6.17;;;3.80;;
8177;SDS011;4130;48.740;9.132;2022-08-25T05:30:42;4.13;;;3.50;;
8177;SDS011;4130;48.740;9.132;2022-08-25T05:33:10;4.27;;;3.73;;
8177;SDS011;4130;48.740;9.132;2022-08-25T05:35:37;4.10;;;3.70;;
8177;SDS011;4130;48.740;9.132;2022-08-25T05:38:06;3.65;;;3.35;;
8177;SDS011;4130;48.740;9.132;2022-08-25T05:40:33;3.77;;;3.33;;
8177;SDS011;4130;48.740;9.132;2022-08-25T05:43:00;3.90;;;3.55;;
8177;SDS011;4130;48.740;9.132;2022-08-25T05:45:27;4.03;;;3.53;;
8177;SDS011;4130;48.740;9.132;2022-08-25T05:47:54;3.83;;;3.43;;
8177;SDS011;4130;48.740;9.132;2022-08-25T05:50:22;3.57;;;3.27;;
8177;SDS011;4130;48.740;9.132;2022-08-25T05:52:50;4.73;;;3.50;;
8177;SDS011;4130;48.740;9.132;2022-08-25T05:55:18;4.27;;;3.63;;
8177;SDS011;4130;48.740;9.132;2022-08-25T05:57:46;4.23;;;3.83;;
8177;SDS011;4130;48.740;9.132;2022-08-25T06:00:13;4.53;;;3.87;;
8177;SDS011;4130;48.740;9.132;2022-08-25T06:02:41;4.00;;;3.60;;
8177;SDS011;4130;48.740;9.132;2022-08-25T06:05:11;4.30;;;3.30;;
8177;SDS011;4130;48.740;9.132;2022-08-25T06:07:39;5.60;;;3.60;;
8177;SDS011;4130;48.740;9.132;2022-08-25T06:10:06;3.88;;;3.53;;
8177;SDS011;4130;48.740;9.132;2022-08-25T06:12:38;5.00;;;3.57;;
8177;SDS011;4130;48.740;9.132;2022-08-25T06:15:09;4.60;;;3.77;;
8177;SDS011;4130;48.740;9.132;2022-08-25T06:17:36;4.07;;;3.67;;
8177;SDS011;4130;48.740;9.132;2022-08-25T06:20:05;3.67;;;3.37;;
8177;SDS011;4130;48.740;9.132;2022-08-25T06:22:34;3.80;;;3.50;;
8177;SDS011;4130;48.740;9.132;2022-08-25T06:25:01;4.45;;;4.05;;
8177;SDS011;4130;48.740;9.132;2022-08-25T06:27:29;4.53;;;3.83;;
8177;SDS011;4130;48.740;9.132;2022-08-25T06:29:58;4.40;;;3.97;;
8177;SDS011;4130;48.740;9.132;2022-08-25T06:32:29;3.95;;;3.45;;
8177;SDS011;4130;48.740;9.132;2022-08-25T06:34:56;4.97;;;4.03;;
8177;SDS011;4130;48.740;9.132;2022-08-25T06:37:23;5.53;;;3.75;;
8177;SDS011;4130;48.740;9.132;2022-08-25T06:39:51;6.50;;;3.88;;
8177;SDS011;4130;48.740;9.132;2022-08-25T06:42:18;3.90;;;3.50;;
8177;SDS011;4130;48.740;9.132;2022-08-25T06:44:45;4.45;;;3.42;;
8177;SDS011;4130;48.740;9.132;2022-08-25T06:47:13;5.13;;;3.88;;
8177;SDS011;4130;48.740;9.132;2022-08-25T06:49:41;4.25;;;3.85;;
8177;SDS011;4130;48.740;9.132;2022-08-25T06:52:09;5.13;;;4.13;;
8177;SDS011;4130;48.740;9.132;2022-08-25T06:54:36;6.20;;;4.10;;
8177;SDS011;4130;48.740;9.132;2022-08-25T06:57:04;4.88;;;4.00;;
8177;SDS011;4130;48.740;9.132;2022-08-25T06:59:32;4.65;;;4.07;;
8177;SDS011;4130;48.740;9.132;2022-08-25T07:01:59;4.97;;;4.47;;
8177;SDS011;4130;48.740;9.132;2022-08-25T07:04:29;7.53;;;4.63;;
8177;SDS011;4130;48.740;9.132;2022-08-25T07:06:56;24.23;;;5.63;;
8177;SDS011;4130;48.740;9.132;2022-08-25T07:09:23;5.22;;;4.60;;
8177;SDS011;4130;48.740;9.132;2022-08-25T07:11:50;5.18;;;4.20;;
8177;SDS011;4130;48.740;9.132;2022-08-25T07:14:18;5.00;;;4.00;;
8177;SDS011;4130;48.740;9.132;2022-08-25T07:16:46;4.68;;;4.20;;
8177;SDS011;4130;48.740;9.132;2022-08-25T07:19:13;5.35;;;4.07;;
8177;SDS011;4130;48.740;9.132;2022-08-25T07:21:41;4.25;;;3.85;;
8177;SDS011;4130;48.740;9.132;2022-08-25T07:24:11;6.43;;;4.32;;
8177;SDS011;4130;48.740;9.132;2022-08-25T07:26:39;4.63;;;4.20;;
8177;SDS011;4130;48.740;9.132;2022-08-25T07:29:08;8.00;;;7.10;;
8177;SDS011;4130;48.740;9.132;2022-08-25T07:31:37;9.10;;;7.88;;
8177;SDS011;4130;48.740;9.132;2022-08-25T07:34:04;7.03;;;5.15;;
8177;SDS011;4130;48.740;9.132;2022-08-25T07:36:51;5.50;;;4.80;;
8177;SDS011;4130;48.740;9.132;2022-08-25T07:39:18;6.07;;;5.03;;
8177;SDS011;4130;48.740;9.132;2022-08-25T07:41:45;7.38;;;4.60;;
8177;SDS011;4130;48.740;9.132;2022-08-25T07:44:12;4.63;;;4.18;;
8177;SDS011;4130;48.740;9.132;2022-08-25T07:46:39;6.72;;;4.75;;
8177;SDS011;4130;48.740;9.132;2022-08-25T07:49:07;6.85;;;4.07;;
8177;SDS011;4130;48.740;9.132;2022-08-25T07:51:34;6.25;;;4.20;;
8177;SDS011;4130;48.740;9.132;2022-08-25T07:54:03;5.15;;;4.50;;
8177;SDS011;4130;48.740;9.132;2022-08-25T07:56:30;4.90;;;4.40;;
8177;SDS011;4130;48.740;9.132;2022-08-25T07:58:58;5.32;;;4.45;;
8177;SDS011;4130;48.740;9.132;2022-08-25T08:01:25;5.35;;;4.32;;
8177;SDS011;4130;48.740;9.132;2022-08-25T08:03:52;5.28;;;4.32;;
8177;SDS011;4130;48.740;9.132;2022-08-25T08:06:20;7.00;;;4.22;;
8177;SDS011;4130;48.740;9.132;2022-08-25T08:08:49;5.53;;;4.55;;
8177;SDS011;4130;48.740;9.132;2022-08-25T08:11:20;5.40;;;4.43;;
8177;SDS011;4130;48.740;9.132;2022-08-25T08:13:48;5.00;;;3.90;;
8177;SDS011;4130;48.740;9.132;2022-08-25T08:16:17;4.80;;;4.30;;
8177;SDS011;4130;48.740;9.132;2022-08-25T08:18:45;6.20;;;4.43;;
8177;SDS011;4130;48.740;9.132;2022-08-25T08:21:14;7.97;;;4.60;;
8177;SDS011;4130;48.740;9.132;2022-08-25T08:23:43;5.68;;;4.70;;
8177;SDS011;4130;48.740;9.132;2022-08-25T08:26:10;4.80;;;4.32;;
8177;SDS011;4130;48.740;9.132;2022-08-25T08:28:38;5.38;;;3.97;;
8177;SDS011;4130;48.740;9.132;2022-08-25T08:31:05;5.70;;;4.50;;
8177;SDS011;4130;48.740;9.132;2022-08-25T08:33:33;6.13;;;4.43;;
8177;SDS011;4130;48.740;9.132;2022-08-25T08:36:01;5.03;;;4.45;;
8177;SDS011;4130;48.740;9.132;2022-08-25T08:38:31;4.30;;;3.88;;
8177;SDS011;4130;48.740;9.132;2022-08-25T08:41:01;4.55;;;3.92;;
8177;SDS011;4130;48.740;9.132;2022-08-25T08:43:53;4.22;;;3.78;;
8177;SDS011;4130;48.740;9.132;2022-08-25T08:46:27;4.15;;;3.85;;
8177;SDS011;4130;48.740;9.132;2022-08-25T08:49:05;6.30;;;3.70;;
8177;SDS011;4130;48.740;9.132;2022-08-25T08:51:49;4.10;;;3.40;;
8177;SDS011;4130;48.740;9.132;2022-08-25T08:54:22;3.80;;;3.50;;
8177;SDS011;4130;48.740;9.132;2022-08-25T08:56:53;4.22;;;3.83;;
8177;SDS011;4130;48.740;9.132;2022-08-25T08:59:27;4.32;;;3.72;;
8177;SDS011;4130;48.740;9.132;2022-08-25T09:02:00;5.00;;;3.53;;
8177;SDS011;4130;48.740;9.132;2022-08-25T09:04:31;5.22;;;4.15;;
8177;SDS011;4130;48.740;9.132;2022-08-25T09:07:03;3.80;;;3.50;;
8177;SDS011;4130;48.740;9.132;2022-08-25T09:09:36;4.07;;;3.78;;
8177;SDS011;4130;48.740;9.132;2022-08-25T09:12:08;4.13;;;3.72;;
8177;SDS011;4130;48.740;9.132;2022-08-25T09:14:44;3.83;;;3.53;;
8177;SDS011;4130;48.740;9.132;2022-08-25T09:17:20;3.75;;;3.38;;
8177;SDS011;4130;48.740;9.132;2022-08-25T09:20:07;4.97;;;3.42;;
8177;SDS011;4130;48.740;9.132;2022-08-25T09:22:53;5.32;;;3.75;;
8177;SDS011;4130;48.740;9.132;2022-08-25T09:25:29;6.07;;;3.67;;
8177;SDS011;4130;48.740;9.132;2022-08-25T09:28:05;3.90;;;3.58;;
8177;SDS011;4130;48.740;9.132;2022-08-25T09:30:39;6.18;;;3.63;;
8177;SDS011;4130;48.740;9.132;2022-08-25T09:33:14;3.80;;;3.25;;
8177;SDS011;4130;48.740;9.132;2022-08-25T09:35:45;3.83;;;3.45;;
8177;SDS011;4130;48.740;9.132;2022-08-25T09:38:14;3.53;;;3.22;;
8177;SDS011;4130;48.740;9.132;2022-08-25T09:40:42;3.85;;;3.20;;
8177;SDS011;4130;48.740;9.132;2022-08-25T09:43:17;3.80;;;3.50;;
8177;SDS011;4130;48.740;9.132;2022-08-25T09:45:49;2.67;;;2.47;;
8177;SDS011;4130;48.740;9.132;2022-08-25T09:48:25;4.50;;;3.30;;
8177;SDS011;4130;48.740;9.132;2022-08-25T09:50:56;3.63;;;3.30;;
8177;SDS011;4130;48.740;9.132;2022-08-25T09:53:25;3.60;;;3.05;;
8177;SDS011;4130;48.740;9.132;2022-08-25T09:55:55;3.58;;;3.28;;
8177;SDS011;4130;48.740;9.132;2022-08-25T09:58:29;3.80;;;3.38;;
8177;SDS011;4130;48.740;9.132;2022-08-25T10:01:02;3.38;;;3.08;;
8177;SDS011;4130;48.740;9.132;2022-08-25T10:03:53;3.40;;;3.20;;
8177;SDS011;4130;48.740;9.132;2022-08-25T10:06:23;3.92;;;3.17;;
8177;SDS011;4130;48.740;9.132;2022-08-25T10:08:54;3.25;;;3.05;;
8177;SDS011;4130;48.740;9.132;2022-08-25T10:11:38;4.38;;;3.00;;
8177;SDS011;4130;48.740;9.132;2022-08-25T10:14:17;3.22;;;2.92;;
8177;SDS011;4130;48.740;9.132;2022-08-25T10:16:53;3.03;;;2.83;;
8177;SDS011;4130;48.740;9.132;2022-08-25T10:19:38;2.75;;;2.55;;
8177;SDS011;4130;48.740;9.132;2022-08-25T10:22:06;4.88;;;3.10;;
8177;SDS011;4130;48.740;9.132;2022-08-25T10:24:35;3.33;;;2.90;;
8177;SDS011;4130;48.740;9.132;2022-08-25T10:27:05;3.42;;;3.13;;
8177;SDS011;4130;48.740;9.132;2022-08-25T10:32:50;3.22;;;3.00;;
8177;SDS011;4130;48.740;9.132;2022-08-25T10:35:29;3.83;;;3.30;;
8177;SDS011;4130;48.740;9.132;2022-08-25T10:38:02;7.53;;;3.15;;
8177;SDS011;4130;48.740;9.132;2022-08-25T10:40:39;3.15;;;2.85;;
8177;SDS011;4130;48.740;9.132;2022-08-25T10:43:16;3.22;;;2.70;;
8177;SDS011;4130;48.740;9.132;2022-08-25T10:45:55;3.28;;;2.72;;
8177;SDS011;4130;48.740;9.132;2022-08-25T10:48:43;2.72;;;2.53;;
8177;SDS011;4130;48.740;9.132;2022-08-25T10:54:07;4.40;;;2.83;;
8177;SDS011;4130;48.740;9.132;2022-08-25T10:56:44;3.67;;;2.95;;
8177;SDS011;4130;48.740;9.132;2022-08-25T10:59:27;3.17;;;2.80;;
8177;SDS011;4130;48.740;9.132;2022-08-25T11:02:10;3.15;;;2.75;;
8177;SDS011;4130;48.740;9.132;2022-08-25T11:04:56;3.75;;;2.88;;
8177;SDS011;4130;48.740;9.132;2022-08-25T11:07:27;6.82;;;3.10;;
8177;SDS011;4130;48.740;9.132;2022-08-25T11:09:59;2.63;;;2.42;;
8177;SDS011;4130;48.740;9.132;2022-08-25T11:12:31;7.60;;;2.80;;
8177;SDS011;4130;48.740;9.132;2022-08-25T11:15:06;2.70;;;2.50;;
8177;SDS011;4130;48.740;9.132;2022-08-25T11:17:38;3.75;;;2.60;;
8177;SDS011;4130;48.740;9.132;2022-08-25T11:20:10;2.63;;;2.42;;
8177;SDS011;4130;48.740;9.132;2022-08-25T11:22:42;4.88;;;3.05;;
8177;SDS011;4130;48.740;9.132;2022-08-25T11:25:13;2.72;;;2.53;;
8177;SDS011;4130;48.740;9.132;2022-08-25T11:27:46;3.38;;;3.08;;
8177;SDS011;4130;48.740;9.132;2022-08-25T11:30:20;2.90;;;2.70;;
8177;SDS011;4130;48.740;9.132;2022-08-25T11:32:49;3.20;;;2.90;;
8177;SDS011;4130;48.740;9.132;2022-08-25T11:35:19;3.45;;;2.67;;
8177;SDS011;4130;48.740;9.132;2022-08-25T11:37:57;4.50;;;2.60;;
8177;SDS011;4130;48.740;9.132;2022-08-25T11:40:40;3.55;;;2.72;;
8177;SDS011;4130;48.740;9.132;2022-08-25T11:43:22;2.78;;;2.58;;
8177;SDS011;4130;48.740;9.132;2022-08-25T11:45:59;3.08;;;2.80;;
8177;SDS011;4130;48.740;9.132;2022-08-25T11:48:40;3.63;;;2.80;;
8177;SDS011;4130;48.740;9.132;2022-08-25T11:51:28;2.53;;;2.33;;
8177;SDS011;4130;48.740;9.132;2022-08-25T11:54:05;3.85;;;2.70;;
8177;SDS011;4130;48.740;9.132;2022-08-25T11:56:42;4.03;;;2.80;;
8177;SDS011;4130;48.740;9.132;2022-08-25T12:05:01;5.07;;;2.63;;
8177;SDS011;4130;48.740;9.132;2022-08-25T12:07:32;2.78;;;2.40;;
8177;SDS011;4130;48.740;9.132;2022-08-25T12:10:56;3.03;;;2.72;;
8177;SDS011;4130;48.740;9.132;2022-08-25T12:13:28;4.53;;;2.50;;
8177;SDS011;4130;48.740;9.132;2022-08-25T12:16:33;3.10;;;2.80;;
8177;SDS011;4130;48.740;9.132;2022-08-25T12:19:25;2.63;;;2.42;;
8177;SDS011;4130;48.740;9.132;2022-08-25T12:21:55;3.13;;;2.60;;
8177;SDS011;4130;48.740;9.132;2022-08-25T12:24:34;2.88;;;2.50;;
8177;SDS011;4130;48.740;9.132;2022-08-25T12:27:19;2.80;;;2.60;;
8177;SDS011;4130;48.740;9.132;2022-08-25T12:29:50;3.45;;;2.95;;
8177;SDS011;4130;48.740;9.132;2022-08-25T12:32:37;6.13;;;2.70;;
8177;SDS011;4130;48.740;9.132;2022-08-25T12:38:04;2.70;;;2.40;;
8177;SDS011;4130;48.740;9.132;2022-08-25T12:40:37;2.83;;;2.63;;
8177;SDS011;4130;48.740;9.132;2022-08-25T12:43:23;2.47;;;2.28;;
8177;SDS011;4130;48.740;9.132;2022-08-25T12:45:53;2.85;;;2.20;;
8177;SDS011;4130;48.740;9.132;2022-08-25T12:48:54;3.33;;;2.33;;
8177;SDS011;4130;48.740;9.132;2022-08-25T12:51:24;3.58;;;2.22;;
8177;SDS011;4130;48.740;9.132;2022-08-25T12:53:52;2.28;;;2.17;;
8177;SDS011;4130;48.740;9.132;2022-08-25T12:56:27;2.60;;;2.40;;
8177;SDS011;4130;48.740;9.132;2022-08-25T12:59:04;4.65;;;2.33;;
8177;SDS011;4130;48.740;9.132;2022-08-25T13:01:42;2.70;;;2.40;;
8177;SDS011;4130;48.740;9.132;2022-08-25T13:07:27;3.35;;;2.10;;
8177;SDS011;4130;48.740;9.132;2022-08-25T13:10:13;2.25;;;2.05;;
8177;SDS011;4130;48.740;9.132;2022-08-25T13:13:02;5.55;;;2.22;;
8177;SDS011;4130;48.740;9.132;2022-08-25T13:15:35;2.22;;;2.13;;
8177;SDS011;4130;48.740;9.132;2022-08-25T13:18:15;3.28;;;2.03;;
8177;SDS011;4130;48.740;9.132;2022-08-25T13:20:45;4.53;;;2.30;;
8177;SDS011;4130;48.740;9.132;2022-08-25T13:23:15;4.63;;;2.20;;
8177;SDS011;4130;48.740;9.132;2022-08-25T13:25:46;2.38;;;2.17;;
8177;SDS011;4130;48.740;9.132;2022-08-25T13:28:22;2.55;;;2.35;;
8177;SDS011;4130;48.740;9.132;2022-08-25T13:30:57;2.65;;;2.45;;
8177;SDS011;4130;48.740;9.132;2022-08-25T13:33:26;5.20;;;2.15;;
8177;SDS011;4130;48.740;9.132;2022-08-25T13:35:54;2.10;;;2.00;;
8177;SDS011;4130;48.740;9.132;2022-08-25T13:38:36;2.20;;;2.03;;
8177;SDS011;4130;48.740;9.132;2022-08-25T13:41:04;4.28;;;2.10;;
8177;SDS011;4130;48.740;9.132;2022-08-25T13:43:34;3.17;;;2.10;;
8177;SDS011;4130;48.740;9.132;2022-08-25T13:46:02;4.25;;;2.13;;
8177;SDS011;4130;48.740;9.132;2022-08-25T13:48:31;1.90;;;1.80;;
8177;SDS011;4130;48.740;9.132;2022-08-25T13:51:05;3.08;;;2.50;;
8177;SDS011;4130;48.740;9.132;2022-08-25T13:53:36;2.78;;;2.58;;
8177;SDS011;4130;48.740;9.132;2022-08-25T13:56:04;2.35;;;2.25;;
8177;SDS011;4130;48.740;9.132;2022-08-25T13:58:32;2.63;;;2.03;;
8177;SDS011;4130;48.740;9.132;2022-08-25T14:01:05;3.90;;;2.65;;
8177;SDS011;4130;48.740;9.132;2022-08-25T14:03:35;2.42;;;2.22;;
8177;SDS011;4130;48.740;9.132;2022-08-25T14:06:04;2.53;;;2.20;;
8177;SDS011;4130;48.740;9.132;2022-08-25T14:08:34;2.80;;;2.17;;
8177;SDS011;4130;48.740;9.132;2022-08-25T14:11:07;2.20;;;2.00;;
8177;SDS011;4130;48.740;9.132;2022-08-25T14:13:41;5.50;;;2.28;;
8177;SDS011;4130;48.740;9.132;2022-08-25T14:16:10;3.53;;;2.13;;
8177;SDS011;4130;48.740;9.132;2022-08-25T14:18:44;2.38;;;2.17;;
8177;SDS011;4130;48.740;9.132;2022-08-25T14:21:14;2.20;;;2.00;;
8177;SDS011;4130;48.740;9.132;2022-08-25T14:23:41;2.55;;;2.20;;
8177;SDS011;4130;48.740;9.132;2022-08-25T14:26:08;1.98;;;1.88;;
8177;SDS011;4130;48.740;9.132;2022-08-25T14:28:35;2.20;;;2.10;;
8177;SDS011;4130;48.740;9.132;2022-08-25T14:31:05;2.60;;;2.13;;
8177;SDS011;4130;48.740;9.132;2022-08-25T14:33:36;1.95;;;1.85;;
8177;SDS011;4130;48.740;9.132;2022-08-25T14:36:05;7.15;;;2.60;;
8177;SDS011;4130;48.740;9.132;2022-08-25T14:38:33;2.38;;;2.17;;
8177;SDS011;4130;48.740;9.132;2022-08-25T14:41:03;4.55;;;2.10;;
8177;SDS011;4130;48.740;9.132;2022-08-25T14:43:30;4.13;;;2.22;;
8177;SDS011;4130;48.740;9.132;2022-08-25T14:45:59;2.40;;;1.95;;
8177;SDS011;4130;48.740;9.132;2022-08-25T14:48:28;2.22;;;2.03;;
8177;SDS011;4130;48.740;9.132;2022-08-25T14:50:59;3.20;;;2.10;;
8177;SDS011;4130;48.740;9.132;2022-08-25T14:53:29;2.30;;;2.10;;
8177;SDS011;4130;48.740;9.132;2022-08-25T14:55:56;3.22;;;1.80;;
8177;SDS011;4130;48.740;9.132;2022-08-25T14:58:23;2.15;;;2.05;;
8177;SDS011;4130;48.740;9.132;2022-08-25T15:00:50;3.50;;;2.25;;
8177;SDS011;4130;48.740;9.132;2022-08-25T15:03:20;1.92;;;1.83;;
8177;SDS011;4130;48.740;9.132;2022-08-25T15:05:53;3.67;;;2.33;;
8177;SDS011;4130;48.740;9.132;2022-08-25T15:08:20;2.03;;;1.92;;
8177;SDS011;4130;48.740;9.132;2022-08-25T15:11:04;2.28;;;2.08;;
8177;SDS011;4130;48.740;9.132;2022-08-25T15:13:31;1.90;;;1.80;;
8177;SDS011;4130;48.740;9.132;2022-08-25T15:15:58;4.38;;;3.13;;
8177;SDS011;4130;48.740;9.132;2022-08-25T15:18:27;1.95;;;1.85;;
8177;SDS011;4130;48.740;9.132;2022-08-25T15:20:53;2.08;;;1.98;;
8177;SDS011;4130;48.740;9.132;2022-08-25T15:23:21;3.22;;;2.30;;
8177;SDS011;4130;48.740;9.132;2022-08-25T15:25:48;2.55;;;2.20;;
8177;SDS011;4130;48.740;9.132;2022-08-25T15:28:16;2.47;;;2.28;;
8177;SDS011;4130;48.740;9.132;2022-08-25T15:30:43;2.10;;;1.98;;
8177;SDS011;4130;48.740;9.132;2022-08-25T15:33:10;2.95;;;1.88;;
8177;SDS011;4130;48.740;9.132;2022-08-25T15:35:39;2.35;;;2.15;;
8177;SDS011;4130;48.740;9.132;2022-08-25T15:38:06;2.30;;;2.10;;
8177;SDS011;4130;48.740;9.132;2022-08-25T15:40:33;1.95;;;1.80;;
8177;SDS011;4130;48.740;9.132;2022-08-25T15:43:01;4.95;;;2.50;;
8177;SDS011;4130;48.740;9.132;2022-08-25T15:45:28;2.65;;;2.45;;
8177;SDS011;4130;48.740;9.132;2022-08-25T15:47:56;3.20;;;2.05;;
8177;SDS011;4130;48.740;9.132;2022-08-25T15:50:23;2.17;;;2.08;;
8177;SDS011;4130;48.740;9.132;2022-08-25T15:52:52;2.80;;;2.42;;
8177;SDS011;4130;48.740;9.132;2022-08-25T15:55:19;2.60;;;2.40;;